sensor_id;sensor_type;location;lat;lon;timestamp;pressure;altitude;pressure_sealevel;temperature
68952;BMP180;56000;51.146;17.112;2022-10-16T00:00:14;100171.00;;;13.20
68952;BMP180;56000;51.146;17.112;2022-10-16T00:03:08;100171.00;;;13.20
68952;BMP180;56000;51.146;17.112;2022-10-16T00:05:45;100174.80;;;13.20
68952;BMP180;56000;51.146;17.112;2022-10-16T00:08:18;100174.00;;;13.20
68952;BMP180;56000;51.146;17.112;2022-10-16T00:10:50;100181.40;;;13.20
68952;BMP180;56000;51.146;17.112;2022-10-16T00:13:23;100177.00;;;13.20
68952;BMP180;56000;51.146;17.112;2022-10-16T00:16:00;100183.00;;;13.20
68952;BMP180;56000;51.146;17.112;2022-10-16T00:18:33;100175.80;;;13.20
68952;BMP180;56000;51.146;17.112;2022-10-16T00:21:08;100171.00;;;13.20
68952;BMP180;56000;51.146;17.112;2022-10-16T00:23:41;100179.00;;;13.20
68952;BMP180;56000;51.146;17.112;2022-10-16T00:26:16;100179.00;;;13.20
68952;BMP180;56000;51.146;17.112;2022-10-16T00:28:50;100179.40;;;13.12
68952;BMP180;56000;51.146;17.112;2022-10-16T00:31:24;100181.60;;;13.10
68952;BMP180;56000;51.146;17.112;2022-10-16T00:33:57;100175.00;;;13.08
68952;BMP180;56000;51.146;17.112;2022-10-16T00:36:31;100179.60;;;13.00
68952;BMP180;56000;51.146;17.112;2022-10-16T00:39:04;100182.80;;;13.00
68952;BMP180;56000;51.146;17.112;2022-10-16T00:41:37;100176.60;;;13.00
68952;BMP180;56000;51.146;17.112;2022-10-16T00:44:45;100183.60;;;13.00
68952;BMP180;56000;51.146;17.112;2022-10-16T00:47:24;100183.00;;;12.94
68952;BMP180;56000;51.146;17.112;2022-10-16T00:50:04;100176.80;;;13.00
68952;BMP180;56000;51.146;17.112;2022-10-16T00:52:41;100182.40;;;13.00
68952;BMP180;56000;51.146;17.112;2022-10-16T00:55:16;100179.00;;;13.00
68952;BMP180;56000;51.146;17.112;2022-10-16T00:57:49;100177.00;;;13.00
68952;BMP180;56000;51.146;17.112;2022-10-16T01:00:26;100176.00;;;13.00
68952;BMP180;56000;51.146;17.112;2022-10-16T01:03:01;100169.80;;;13.00
68952;BMP180;56000;51.146;17.112;2022-10-16T01:05:43;100170.80;;;13.06
68952;BMP180;56000;51.146;17.112;2022-10-16T01:08:21;100176.40;;;13.06
68952;BMP180;56000;51.146;17.112;2022-10-16T01:10:59;100174.00;;;13.04
68952;BMP180;56000;51.146;17.112;2022-10-16T01:13:41;100171.40;;;13.08
68952;BMP180;56000;51.146;17.112;2022-10-16T01:16:21;100179.00;;;13.10
68952;BMP180;56000;51.146;17.112;2022-10-16T01:19:04;100168.80;;;13.10
68952;BMP180;56000;51.146;17.112;2022-10-16T01:21:43;100166.00;;;13.10
68952;BMP180;56000;51.146;17.112;2022-10-16T01:24:31;100162.40;;;13.10
68952;BMP180;56000;51.146;17.112;2022-10-16T01:27:23;100165.80;;;13.10
68952;BMP180;56000;51.146;17.112;2022-10-16T01:30:04;100176.40;;;13.18
68952;BMP180;56000;51.146;17.112;2022-10-16T01:32:43;100182.40;;;13.20
68952;BMP180;56000;51.146;17.112;2022-10-16T01:35:21;100179.40;;;13.20
68952;BMP180;56000;51.146;17.112;2022-10-16T01:37:58;100185.40;;;13.20
68952;BMP180;56000;51.146;17.112;2022-10-16T01:40:35;100179.80;;;13.20
68952;BMP180;56000;51.146;17.112;2022-10-16T01:43:12;100174.00;;;13.20
68952;BMP180;56000;51.146;17.112;2022-10-16T01:45:47;100168.20;;;13.20
68952;BMP180;56000;51.146;17.112;2022-10-16T01:48:22;100167.40;;;13.16
68952;BMP180;56000;51.146;17.112;2022-10-16T01:51:01;100177.20;;;13.12
68952;BMP180;56000;51.146;17.112;2022-10-16T01:53:35;100174.80;;;13.10
68952;BMP180;56000;51.146;17.112;2022-10-16T01:56:12;100177.80;;;13.16
68952;BMP180;56000;51.146;17.112;2022-10-16T01:58:49;100181.40;;;13.20
68952;BMP180;56000;51.146;17.112;2022-10-16T02:01:26;100178.00;;;13.20
68952;BMP180;56000;51.146;17.112;2022-10-16T02:04:01;100178.60;;;13.20
68952;BMP180;56000;51.146;17.112;2022-10-16T02:06:36;100183.00;;;13.20
68952;BMP180;56000;51.146;17.112;2022-10-16T02:09:09;100190.00;;;13.24
68952;BMP180;56000;51.146;17.112;2022-10-16T02:11:43;100191.60;;;13.30
68952;BMP180;56000;51.146;17.112;2022-10-16T02:14:16;100185.40;;;13.30
68952;BMP180;56000;51.146;17.112;2022-10-16T02:16:49;100188.80;;;13.30
68952;BMP180;56000;51.146;17.112;2022-10-16T02:19:23;100196.40;;;13.30
68952;BMP180;56000;51.146;17.112;2022-10-16T02:21:59;100195.00;;;13.34
68952;BMP180;56000;51.146;17.112;2022-10-16T02:24:36;100197.00;;;13.40
68952;BMP180;56000;51.146;17.112;2022-10-16T02:27:16;100194.80;;;13.40
68952;BMP180;56000;51.146;17.112;2022-10-16T02:29:55;100195.40;;;13.40
68952;BMP180;56000;51.146;17.112;2022-10-16T02:32:32;100201.00;;;13.40
68952;BMP180;56000;51.146;17.112;2022-10-16T02:35:07;100203.40;;;13.40
68952;BMP180;56000;51.146;17.112;2022-10-16T02:37:41;100209.60;;;13.40
68952;BMP180;56000;51.146;17.112;2022-10-16T02:40:15;100217.20;;;13.40
68952;BMP180;56000;51.146;17.112;2022-10-16T02:42:55;100218.80;;;13.40
68952;BMP180;56000;51.146;17.112;2022-10-16T02:45:28;100219.60;;;13.40
68952;BMP180;56000;51.146;17.112;2022-10-16T02:48:01;100219.40;;;13.40
68952;BMP180;56000;51.146;17.112;2022-10-16T02:50:34;100211.80;;;13.40
68952;BMP180;56000;51.146;17.112;2022-10-16T02:53:07;100212.00;;;13.40
68952;BMP180;56000;51.146;17.112;2022-10-16T02:55:40;100208.40;;;13.40
68952;BMP180;56000;51.146;17.112;2022-10-16T02:58:13;100217.80;;;13.30
68952;BMP180;56000;51.146;17.112;2022-10-16T03:00:46;100214.60;;;13.30
68952;BMP180;56000;51.146;17.112;2022-10-16T03:03:19;100222.00;;;13.28
68952;BMP180;56000;51.146;17.112;2022-10-16T03:05:52;100215.40;;;13.20
68952;BMP180;56000;51.146;17.112;2022-10-16T03:08:24;100211.40;;;13.20
68952;BMP180;56000;51.146;17.112;2022-10-16T03:10:57;100217.00;;;13.20
68952;BMP180;56000;51.146;17.112;2022-10-16T03:13:32;100218.80;;;13.20
68952;BMP180;56000;51.146;17.112;2022-10-16T03:16:05;100228.80;;;13.20
68952;BMP180;56000;51.146;17.112;2022-10-16T03:18:38;100230.60;;;13.20
68952;BMP180;56000;51.146;17.112;2022-10-16T03:21:11;100232.00;;;13.20
68952;BMP180;56000;51.146;17.112;2022-10-16T03:23:44;100234.00;;;13.20
68952;BMP180;56000;51.146;17.112;2022-10-16T03:26:18;100235.00;;;13.20
68952;BMP180;56000;51.146;17.112;2022-10-16T03:28:50;100235.20;;;13.20
68952;BMP180;56000;51.146;17.112;2022-10-16T03:31:24;100234.20;;;13.22
68952;BMP180;56000;51.146;17.112;2022-10-16T03:33:56;100231.40;;;13.20
68952;BMP180;56000;51.146;17.112;2022-10-16T03:36:29;100227.80;;;13.20
68952;BMP180;56000;51.146;17.112;2022-10-16T03:39:02;100221.80;;;13.24
68952;BMP180;56000;51.146;17.112;2022-10-16T03:41:35;100223.20;;;13.28
68952;BMP180;56000;51.146;17.112;2022-10-16T03:44:08;100230.60;;;13.30
68952;BMP180;56000;51.146;17.112;2022-10-16T03:46:41;100236.40;;;13.30
68952;BMP180;56000;51.146;17.112;2022-10-16T03:49:14;100248.60;;;13.30
68952;BMP180;56000;51.146;17.112;2022-10-16T03:51:47;100243.40;;;13.40
68952;BMP180;56000;51.146;17.112;2022-10-16T03:54:19;100244.40;;;13.40
68952;BMP180;56000;51.146;17.112;2022-10-16T03:56:53;100241.20;;;13.40
68952;BMP180;56000;51.146;17.112;2022-10-16T03:59:26;100241.40;;;13.46
68952;BMP180;56000;51.146;17.112;2022-10-16T04:01:59;100241.40;;;13.50
68952;BMP180;56000;51.146;17.112;2022-10-16T04:04:31;100246.00;;;13.50
68952;BMP180;56000;51.146;17.112;2022-10-16T04:07:04;100245.40;;;13.50
68952;BMP180;56000;51.146;17.112;2022-10-16T04:09:37;100250.60;;;13.50
68952;BMP180;56000;51.146;17.112;2022-10-16T04:12:10;100249.60;;;13.50
68952;BMP180;56000;51.146;17.112;2022-10-16T04:14:43;100250.60;;;13.50
68952;BMP180;56000;51.146;17.112;2022-10-16T04:17:16;100247.80;;;13.54
68952;BMP180;56000;51.146;17.112;2022-10-16T04:19:49;100252.40;;;13.58
68952;BMP180;56000;51.146;17.112;2022-10-16T04:22:22;100256.60;;;13.60
68952;BMP180;56000;51.146;17.112;2022-10-16T04:24:55;100260.60;;;13.60
68952;BMP180;56000;51.146;17.112;2022-10-16T04:27:28;100259.80;;;13.60
68952;BMP180;56000;51.146;17.112;2022-10-16T04:30:03;100255.00;;;13.60
68952;BMP180;56000;51.146;17.112;2022-10-16T04:32:36;100256.20;;;13.60
68952;BMP180;56000;51.146;17.112;2022-10-16T04:35:10;100250.40;;;13.50
68952;BMP180;56000;51.146;17.112;2022-10-16T04:37:43;100260.80;;;13.50
68952;BMP180;56000;51.146;17.112;2022-10-16T04:40:16;100266.80;;;13.50
68952;BMP180;56000;51.146;17.112;2022-10-16T04:42:49;100271.20;;;13.50
68952;BMP180;56000;51.146;17.112;2022-10-16T04:45:22;100271.00;;;13.44
68952;BMP180;56000;51.146;17.112;2022-10-16T04:47:58;100274.40;;;13.42
68952;BMP180;56000;51.146;17.112;2022-10-16T04:50:31;100271.20;;;13.40
68952;BMP180;56000;51.146;17.112;2022-10-16T04:53:09;100268.40;;;13.40
68952;BMP180;56000;51.146;17.112;2022-10-16T04:55:42;100272.00;;;13.40
68952;BMP180;56000;51.146;17.112;2022-10-16T04:58:16;100273.00;;;13.44
68952;BMP180;56000;51.146;17.112;2022-10-16T05:00:48;100274.00;;;13.50
68952;BMP180;56000;51.146;17.112;2022-10-16T05:03:21;100273.60;;;13.50
68952;BMP180;56000;51.146;17.112;2022-10-16T05:05:54;100275.20;;;13.50
68952;BMP180;56000;51.146;17.112;2022-10-16T05:08:28;100277.60;;;13.50
68952;BMP180;56000;51.146;17.112;2022-10-16T05:11:00;100276.20;;;13.50
68952;BMP180;56000;51.146;17.112;2022-10-16T05:13:36;100277.80;;;13.56
68952;BMP180;56000;51.146;17.112;2022-10-16T05:16:10;100280.00;;;13.50
68952;BMP180;56000;51.146;17.112;2022-10-16T05:18:42;100281.80;;;13.50
68952;BMP180;56000;51.146;17.112;2022-10-16T05:21:15;100285.40;;;13.50
68952;BMP180;56000;51.146;17.112;2022-10-16T05:23:48;100298.60;;;13.50
68952;BMP180;56000;51.146;17.112;2022-10-16T05:26:21;100301.40;;;13.50
68952;BMP180;56000;51.146;17.112;2022-10-16T05:28:54;100287.60;;;13.50
68952;BMP180;56000;51.146;17.112;2022-10-16T05:31:27;100283.80;;;13.50
68952;BMP180;56000;51.146;17.112;2022-10-16T05:34:02;100284.80;;;13.50
68952;BMP180;56000;51.146;17.112;2022-10-16T05:36:35;100289.60;;;13.50
68952;BMP180;56000;51.146;17.112;2022-10-16T05:39:08;100295.00;;;13.50
68952;BMP180;56000;51.146;17.112;2022-10-16T05:41:41;100297.40;;;13.50
68952;BMP180;56000;51.146;17.112;2022-10-16T05:44:14;100297.80;;;13.54
68952;BMP180;56000;51.146;17.112;2022-10-16T05:46:47;100301.00;;;13.60
68952;BMP180;56000;51.146;17.112;2022-10-16T05:49:20;100295.00;;;13.60
68952;BMP180;56000;51.146;17.112;2022-10-16T05:51:53;100298.40;;;13.62
68952;BMP180;56000;51.146;17.112;2022-10-16T05:54:25;100301.00;;;13.70
68952;BMP180;56000;51.146;17.112;2022-10-16T05:56:58;100300.40;;;13.70
68952;BMP180;56000;51.146;17.112;2022-10-16T05:59:31;100302.40;;;13.72
68952;BMP180;56000;51.146;17.112;2022-10-16T06:02:04;100307.00;;;13.80
68952;BMP180;56000;51.146;17.112;2022-10-16T06:04:36;100311.20;;;13.80
68952;BMP180;56000;51.146;17.112;2022-10-16T06:07:09;100318.20;;;13.90
68952;BMP180;56000;51.146;17.112;2022-10-16T06:09:42;100327.80;;;13.90
68952;BMP180;56000;51.146;17.112;2022-10-16T06:12:15;100330.40;;;14.00
68952;BMP180;56000;51.146;17.112;2022-10-16T06:14:48;100331.20;;;14.04
68952;BMP180;56000;51.146;17.112;2022-10-16T06:17:22;100326.00;;;14.10
68952;BMP180;56000;51.146;17.112;2022-10-16T06:19:55;100333.80;;;14.20
68952;BMP180;56000;51.146;17.112;2022-10-16T06:22:28;100336.00;;;14.22
68952;BMP180;56000;51.146;17.112;2022-10-16T06:25:00;100331.60;;;14.30
68952;BMP180;56000;51.146;17.112;2022-10-16T06:27:33;100336.00;;;14.40
68952;BMP180;56000;51.146;17.112;2022-10-16T06:30:09;100340.20;;;14.50
68952;BMP180;56000;51.146;17.112;2022-10-16T06:32:42;100337.80;;;14.50
68952;BMP180;56000;51.146;17.112;2022-10-16T06:35:15;100341.00;;;14.60
68952;BMP180;56000;51.146;17.112;2022-10-16T06:37:48;100345.40;;;14.70
68952;BMP180;56000;51.146;17.112;2022-10-16T06:40:20;100348.00;;;14.80
68952;BMP180;56000;51.146;17.112;2022-10-16T06:42:55;100354.20;;;14.90
68952;BMP180;56000;51.146;17.112;2022-10-16T06:45:28;100363.40;;;15.00
68952;BMP180;56000;51.146;17.112;2022-10-16T06:48:01;100363.60;;;15.10
68952;BMP180;56000;51.146;17.112;2022-10-16T06:50:34;100360.60;;;15.20
68952;BMP180;56000;51.146;17.112;2022-10-16T06:53:06;100367.80;;;15.34
68952;BMP180;56000;51.146;17.112;2022-10-16T06:55:39;100376.40;;;15.40
68952;BMP180;56000;51.146;17.112;2022-10-16T06:58:12;100372.00;;;15.50
68952;BMP180;56000;51.146;17.112;2022-10-16T07:00:45;100377.40;;;15.50
68952;BMP180;56000;51.146;17.112;2022-10-16T07:03:18;100380.60;;;15.50
68952;BMP180;56000;51.146;17.112;2022-10-16T07:05:51;100384.60;;;15.60
68952;BMP180;56000;51.146;17.112;2022-10-16T07:08:24;100383.80;;;15.60
68952;BMP180;56000;51.146;17.112;2022-10-16T07:11:03;100391.40;;;15.60
68952;BMP180;56000;51.146;17.112;2022-10-16T07:13:38;100394.00;;;15.64
68952;BMP180;56000;51.146;17.112;2022-10-16T07:16:14;100396.20;;;15.70
68952;BMP180;56000;51.146;17.112;2022-10-16T07:18:47;100401.80;;;15.80
68952;BMP180;56000;51.146;17.112;2022-10-16T07:21:27;100402.40;;;15.80
68952;BMP180;56000;51.146;17.112;2022-10-16T07:24:01;100408.60;;;15.90
68952;BMP180;56000;51.146;17.112;2022-10-16T07:26:37;100408.40;;;15.90
68952;BMP180;56000;51.146;17.112;2022-10-16T07:29:15;100397.20;;;16.00
68952;BMP180;56000;51.146;17.112;2022-10-16T07:31:49;100400.60;;;16.18
68952;BMP180;56000;51.146;17.112;2022-10-16T07:34:22;100399.40;;;16.30
68952;BMP180;56000;51.146;17.112;2022-10-16T07:36:55;100405.00;;;16.50
68952;BMP180;56000;51.146;17.112;2022-10-16T07:39:28;100415.40;;;16.52
68952;BMP180;56000;51.146;17.112;2022-10-16T07:42:01;100406.60;;;16.60
68952;BMP180;56000;51.146;17.112;2022-10-16T07:44:33;100410.40;;;16.70
68952;BMP180;56000;51.146;17.112;2022-10-16T07:47:06;100407.40;;;16.80
68952;BMP180;56000;51.146;17.112;2022-10-16T07:49:39;100403.60;;;16.90
68952;BMP180;56000;51.146;17.112;2022-10-16T07:52:12;100402.40;;;17.00
68952;BMP180;56000;51.146;17.112;2022-10-16T07:54:45;100398.80;;;17.10
68952;BMP180;56000;51.146;17.112;2022-10-16T07:57:18;100396.40;;;17.10
68952;BMP180;56000;51.146;17.112;2022-10-16T07:59:51;100402.80;;;17.20
68952;BMP180;56000;51.146;17.112;2022-10-16T08:02:24;100407.60;;;17.30
68952;BMP180;56000;51.146;17.112;2022-10-16T08:04:57;100406.00;;;17.46
68952;BMP180;56000;51.146;17.112;2022-10-16T08:07:29;100405.60;;;17.60
68952;BMP180;56000;51.146;17.112;2022-10-16T08:10:03;100406.20;;;17.80
68952;BMP180;56000;51.146;17.112;2022-10-16T08:12:36;100402.80;;;18.00
68952;BMP180;56000;51.146;17.112;2022-10-16T08:15:11;100408.40;;;18.20
68952;BMP180;56000;51.146;17.112;2022-10-16T08:17:44;100413.80;;;18.50
68952;BMP180;56000;51.146;17.112;2022-10-16T08:20:16;100423.60;;;18.70
68952;BMP180;56000;51.146;17.112;2022-10-16T08:22:50;100421.00;;;18.90
68952;BMP180;56000;51.146;17.112;2022-10-16T08:25:25;100431.40;;;19.08
68952;BMP180;56000;51.146;17.112;2022-10-16T08:27:58;100432.80;;;19.10
68952;BMP180;56000;51.146;17.112;2022-10-16T08:30:30;100430.00;;;19.16
68952;BMP180;56000;51.146;17.112;2022-10-16T08:33:04;100431.60;;;19.10
68952;BMP180;56000;51.146;17.112;2022-10-16T08:35:37;100427.40;;;19.10
68952;BMP180;56000;51.146;17.112;2022-10-16T08:38:10;100434.00;;;19.20
68952;BMP180;56000;51.146;17.112;2022-10-16T08:40:45;100434.00;;;19.30
68952;BMP180;56000;51.146;17.112;2022-10-16T08:43:47;100438.00;;;19.40
68952;BMP180;56000;51.146;17.112;2022-10-16T08:46:38;100444.60;;;19.50
68952;BMP180;56000;51.146;17.112;2022-10-16T08:49:21;100448.00;;;19.70
68952;BMP180;56000;51.146;17.112;2022-10-16T08:51:56;100446.20;;;19.84
68952;BMP180;56000;51.146;17.112;2022-10-16T08:54:34;100452.40;;;20.02
68952;BMP180;56000;51.146;17.112;2022-10-16T08:57:23;100452.40;;;20.34
68952;BMP180;56000;51.146;17.112;2022-10-16T08:59:59;100460.00;;;20.50
68952;BMP180;56000;51.146;17.112;2022-10-16T09:02:37;100463.20;;;20.60
68952;BMP180;56000;51.146;17.112;2022-10-16T09:05:45;100459.20;;;20.72
68952;BMP180;56000;51.146;17.112;2022-10-16T09:08:28;100461.20;;;20.88
68952;BMP180;56000;51.146;17.112;2022-10-16T09:11:09;100460.40;;;21.00
68952;BMP180;56000;51.146;17.112;2022-10-16T09:13:52;100462.60;;;21.10
68952;BMP180;56000;51.146;17.112;2022-10-16T09:16:32;100459.80;;;21.10
68952;BMP180;56000;51.146;17.112;2022-10-16T09:19:15;100468.80;;;21.10
68952;BMP180;56000;51.146;17.112;2022-10-16T09:21:49;100468.20;;;21.10
68952;BMP180;56000;51.146;17.112;2022-10-16T09:24:26;100470.40;;;21.10
68952;BMP180;56000;51.146;17.112;2022-10-16T09:26:59;100469.40;;;21.10
68952;BMP180;56000;51.146;17.112;2022-10-16T09:29:32;100465.80;;;21.00
68952;BMP180;56000;51.146;17.112;2022-10-16T09:32:14;100464.40;;;21.10
68952;BMP180;56000;51.146;17.112;2022-10-16T09:34:49;100466.00;;;21.20
68952;BMP180;56000;51.146;17.112;2022-10-16T09:37:24;100479.80;;;21.30
68952;BMP180;56000;51.146;17.112;2022-10-16T09:39:58;100475.40;;;21.30
68952;BMP180;56000;51.146;17.112;2022-10-16T09:42:38;100477.80;;;21.50
68952;BMP180;56000;51.146;17.112;2022-10-16T09:45:24;100475.00;;;21.82
68952;BMP180;56000;51.146;17.112;2022-10-16T09:47:57;100466.40;;;23.92
68952;BMP180;56000;51.146;17.112;2022-10-16T09:50:31;100464.40;;;26.02
68952;BMP180;56000;51.146;17.112;2022-10-16T09:53:12;100467.80;;;27.38
68952;BMP180;56000;51.146;17.112;2022-10-16T09:55:55;100463.20;;;28.28
68952;BMP180;56000;51.146;17.112;2022-10-16T09:58:27;100462.60;;;28.42
68952;BMP180;56000;51.146;17.112;2022-10-16T10:01:01;100466.20;;;28.98
68952;BMP180;56000;51.146;17.112;2022-10-16T10:03:42;100462.80;;;29.10
68952;BMP180;56000;51.146;17.112;2022-10-16T10:06:28;100462.40;;;28.86
68952;BMP180;56000;51.146;17.112;2022-10-16T10:09:13;100461.00;;;30.46
68952;BMP180;56000;51.146;17.112;2022-10-16T10:11:52;100457.60;;;31.14
68952;BMP180;56000;51.146;17.112;2022-10-16T10:14:35;100455.20;;;32.20
68952;BMP180;56000;51.146;17.112;2022-10-16T10:17:17;100459.00;;;33.48
68952;BMP180;56000;51.146;17.112;2022-10-16T10:19:54;100458.20;;;34.44
68952;BMP180;56000;51.146;17.112;2022-10-16T10:22:40;100460.60;;;35.32
68952;BMP180;56000;51.146;17.112;2022-10-16T10:25:36;100468.00;;;35.82
68952;BMP180;56000;51.146;17.112;2022-10-16T10:31:28;100473.40;;;37.04
68952;BMP180;56000;51.146;17.112;2022-10-16T10:34:22;100480.00;;;37.44
68952;BMP180;56000;51.146;17.112;2022-10-16T10:37:02;100480.20;;;37.80
68952;BMP180;56000;51.146;17.112;2022-10-16T10:39:43;100481.40;;;37.48
68952;BMP180;56000;51.146;17.112;2022-10-16T10:42:23;100484.60;;;37.36
68952;BMP180;56000;51.146;17.112;2022-10-16T10:45:18;100482.40;;;36.90
68952;BMP180;56000;51.146;17.112;2022-10-16T10:48:19;100484.00;;;37.00
68952;BMP180;56000;51.146;17.112;2022-10-16T10:50:59;100480.40;;;36.80
68952;BMP180;56000;51.146;17.112;2022-10-16T10:53:50;100480.60;;;37.30
68952;BMP180;56000;51.146;17.112;2022-10-16T10:56:44;100487.40;;;37.10
68952;BMP180;56000;51.146;17.112;2022-10-16T10:59:49;100481.60;;;37.40
68952;BMP180;56000;51.146;17.112;2022-10-16T11:02:33;100480.00;;;37.40
68952;BMP180;56000;51.146;17.112;2022-10-16T11:05:35;100487.60;;;37.86
68952;BMP180;56000;51.146;17.112;2022-10-16T11:08:15;100489.40;;;37.82
68952;BMP180;56000;51.146;17.112;2022-10-16T11:10:54;100491.80;;;36.78
68952;BMP180;56000;51.146;17.112;2022-10-16T11:13:35;100490.00;;;35.12
68952;BMP180;56000;51.146;17.112;2022-10-16T11:16:17;100481.20;;;33.52
68952;BMP180;56000;51.146;17.112;2022-10-16T11:18:57;100481.00;;;33.20
68952;BMP180;56000;51.146;17.112;2022-10-16T11:21:39;100477.00;;;33.98
68952;BMP180;56000;51.146;17.112;2022-10-16T11:24:20;100477.60;;;35.10
68952;BMP180;56000;51.146;17.112;2022-10-16T11:26:55;100479.20;;;35.70
68952;BMP180;56000;51.146;17.112;2022-10-16T11:29:32;100471.00;;;35.80
68952;BMP180;56000;51.146;17.112;2022-10-16T11:32:15;100480.40;;;36.10
68952;BMP180;56000;51.146;17.112;2022-10-16T11:34:55;100474.40;;;36.00
68952;BMP180;56000;51.146;17.112;2022-10-16T11:37:32;100470.60;;;36.50
68952;BMP180;56000;51.146;17.112;2022-10-16T11:40:21;100476.80;;;36.78
68952;BMP180;56000;51.146;17.112;2022-10-16T11:43:01;100480.20;;;37.48
68952;BMP180;56000;51.146;17.112;2022-10-16T11:45:39;100490.00;;;37.64
68952;BMP180;56000;51.146;17.112;2022-10-16T11:48:23;100488.00;;;37.54
68952;BMP180;56000;51.146;17.112;2022-10-16T11:51:02;100488.00;;;36.86
68952;BMP180;56000;51.146;17.112;2022-10-16T11:53:48;100487.20;;;35.24
68952;BMP180;56000;51.146;17.112;2022-10-16T11:56:23;100490.20;;;33.56
68952;BMP180;56000;51.146;17.112;2022-10-16T11:59:02;100484.80;;;32.32
68952;BMP180;56000;51.146;17.112;2022-10-16T12:01:42;100494.80;;;30.68
68952;BMP180;56000;51.146;17.112;2022-10-16T12:04:26;100489.40;;;29.08
68952;BMP180;56000;51.146;17.112;2022-10-16T12:07:08;100502.80;;;27.58
68952;BMP180;56000;51.146;17.112;2022-10-16T12:09:42;100500.00;;;26.42
68952;BMP180;56000;51.146;17.112;2022-10-16T12:12:39;100500.60;;;25.42
68952;BMP180;56000;51.146;17.112;2022-10-16T12:15:28;100494.00;;;24.56
68952;BMP180;56000;51.146;17.112;2022-10-16T12:18:26;100504.60;;;23.80
68952;BMP180;56000;51.146;17.112;2022-10-16T12:20:59;100518.00;;;23.22
68952;BMP180;56000;51.146;17.112;2022-10-16T12:23:46;100523.80;;;22.82
68952;BMP180;56000;51.146;17.112;2022-10-16T12:26:30;100536.80;;;22.44
68952;BMP180;56000;51.146;17.112;2022-10-16T12:29:26;100540.60;;;22.10
68952;BMP180;56000;51.146;17.112;2022-10-16T12:32:04;100541.40;;;21.80
68952;BMP180;56000;51.146;17.112;2022-10-16T12:34:43;100538.40;;;21.60
68952;BMP180;56000;51.146;17.112;2022-10-16T12:37:22;100537.60;;;21.40
68952;BMP180;56000;51.146;17.112;2022-10-16T12:39:58;100538.60;;;21.20
68952;BMP180;56000;51.146;17.112;2022-10-16T12:42:37;100547.80;;;21.10
68952;BMP180;56000;51.146;17.112;2022-10-16T12:45:28;100542.20;;;21.10
68952;BMP180;56000;51.146;17.112;2022-10-16T12:48:04;100545.80;;;21.20
68952;BMP180;56000;51.146;17.112;2022-10-16T12:50:50;100552.00;;;21.30
68952;BMP180;56000;51.146;17.112;2022-10-16T12:53:25;100548.20;;;21.50
68952;BMP180;56000;51.146;17.112;2022-10-16T12:56:12;100550.00;;;22.12
68952;BMP180;56000;51.146;17.112;2022-10-16T12:59:03;100546.80;;;23.58
68952;BMP180;56000;51.146;17.112;2022-10-16T13:01:56;100559.60;;;24.00
68952;BMP180;56000;51.146;17.112;2022-10-16T13:04:48;100560.80;;;23.90
68952;BMP180;56000;51.146;17.112;2022-10-16T13:07:40;100559.40;;;23.80
68952;BMP180;56000;51.146;17.112;2022-10-16T13:10:25;100558.80;;;23.54
68952;BMP180;56000;51.146;17.112;2022-10-16T13:13:21;100560.60;;;23.40
68952;BMP180;56000;51.146;17.112;2022-10-16T13:16:07;100563.80;;;23.20
68952;BMP180;56000;51.146;17.112;2022-10-16T13:18:54;100558.80;;;23.10
68952;BMP180;56000;51.146;17.112;2022-10-16T13:21:47;100557.20;;;23.00
68952;BMP180;56000;51.146;17.112;2022-10-16T13:24:52;100561.40;;;22.80
68952;BMP180;56000;51.146;17.112;2022-10-16T13:27:37;100562.60;;;22.68
68952;BMP180;56000;51.146;17.112;2022-10-16T13:30:18;100569.80;;;22.60
68952;BMP180;56000;51.146;17.112;2022-10-16T13:33:00;100574.80;;;22.70
68952;BMP180;56000;51.146;17.112;2022-10-16T13:35:35;100573.40;;;22.80
68952;BMP180;56000;51.146;17.112;2022-10-16T13:38:17;100571.80;;;22.90
68952;BMP180;56000;51.146;17.112;2022-10-16T13:40:58;100575.60;;;22.80
68952;BMP180;56000;51.146;17.112;2022-10-16T13:43:42;100570.00;;;22.90
68952;BMP180;56000;51.146;17.112;2022-10-16T13:46:18;100570.20;;;22.90
68952;BMP180;56000;51.146;17.112;2022-10-16T13:49:02;100576.80;;;22.90
68952;BMP180;56000;51.146;17.112;2022-10-16T13:51:35;100568.00;;;23.00
68952;BMP180;56000;51.146;17.112;2022-10-16T13:54:10;100562.60;;;23.08
68952;BMP180;56000;51.146;17.112;2022-10-16T13:56:43;100567.60;;;23.20
68952;BMP180;56000;51.146;17.112;2022-10-16T13:59:32;100573.40;;;23.20
68952;BMP180;56000;51.146;17.112;2022-10-16T14:02:17;100572.20;;;23.22
68952;BMP180;56000;51.146;17.112;2022-10-16T14:04:53;100582.00;;;23.20
68952;BMP180;56000;51.146;17.112;2022-10-16T14:07:29;100591.60;;;23.12
68952;BMP180;56000;51.146;17.112;2022-10-16T14:10:07;100590.40;;;23.00
68952;BMP180;56000;51.146;17.112;2022-10-16T14:12:57;100602.00;;;22.80
68952;BMP180;56000;51.146;17.112;2022-10-16T14:15:33;100601.40;;;22.60
68952;BMP180;56000;51.146;17.112;2022-10-16T14:18:07;100601.40;;;22.50
68952;BMP180;56000;51.146;17.112;2022-10-16T14:20:46;100601.80;;;22.50
68952;BMP180;56000;51.146;17.112;2022-10-16T14:23:30;100601.20;;;22.40
68952;BMP180;56000;51.146;17.112;2022-10-16T14:26:22;100599.20;;;22.40
68952;BMP180;56000;51.146;17.112;2022-10-16T14:29:13;100610.80;;;22.40
68952;BMP180;56000;51.146;17.112;2022-10-16T14:31:58;100609.20;;;22.40
68952;BMP180;56000;51.146;17.112;2022-10-16T14:34:33;100598.00;;;22.32
68952;BMP180;56000;51.146;17.112;2022-10-16T14:37:23;100602.00;;;22.30
68952;BMP180;56000;51.146;17.112;2022-10-16T14:39:59;100602.20;;;22.30
68952;BMP180;56000;51.146;17.112;2022-10-16T14:42:33;100597.20;;;22.30
68952;BMP180;56000;51.146;17.112;2022-10-16T14:45:11;100601.40;;;22.30